createdAt,value
2022-11-26T00:00:36.608Z,0.00
2022-11-26T00:01:36.619Z,0.00
2022-11-26T00:02:36.690Z,0.00
2022-11-26T00:03:36.667Z,0.00
2022-11-26T00:04:36.787Z,0.00
2022-11-26T00:05:36.670Z,0.00
2022-11-26T00:06:36.687Z,0.00
2022-11-26T00:07:36.717Z,0.00
2022-11-26T00:08:36.705Z,0.00
2022-11-26T00:09:36.719Z,0.00
2022-11-26T00:10:36.732Z,0.00
2022-11-26T00:11:36.743Z,0.00
2022-11-26T00:12:36.757Z,0.00
2022-11-26T00:13:36.770Z,0.00
2022-11-26T00:14:36.942Z,0.00
2022-11-26T00:15:36.792Z,0.00
2022-11-26T00:16:36.896Z,0.00
2022-11-26T00:17:36.818Z,0.00
2022-11-26T00:18:36.830Z,0.00
2022-11-26T00:19:36.843Z,0.00
2022-11-26T00:20:36.856Z,0.00
2022-11-26T00:21:36.868Z,0.00
2022-11-26T00:22:36.880Z,0.00
2022-11-26T00:23:36.888Z,0.00
2022-11-26T00:24:37.042Z,0.00
2022-11-26T00:25:36.915Z,0.00
2022-11-26T00:26:36.927Z,0.00
2022-11-26T00:27:36.938Z,0.00
2022-11-26T00:28:36.952Z,0.00
2022-11-26T00:29:36.964Z,0.00
2022-11-26T00:30:36.976Z,0.00
2022-11-26T00:31:37.068Z,0.00
2022-11-26T00:32:37.000Z,0.00
2022-11-26T00:33:37.013Z,0.00
2022-11-26T00:34:37.248Z,0.00
2022-11-26T00:35:37.038Z,0.00
2022-11-26T00:36:37.048Z,0.00
2022-11-26T00:37:37.063Z,0.00
2022-11-26T00:38:37.075Z,0.00
2022-11-26T00:39:37.086Z,0.00
2022-11-26T00:40:37.100Z,0.00
2022-11-26T00:41:37.113Z,0.00
2022-11-26T00:42:37.123Z,0.00
2022-11-26T00:43:37.134Z,0.00
2022-11-26T00:44:37.389Z,0.00
2022-11-26T00:45:37.225Z,0.00
2022-11-26T00:46:37.174Z,0.00
2022-11-26T00:47:37.184Z,0.00
2022-11-26T00:48:37.201Z,0.00
2022-11-26T00:49:37.208Z,0.00
2022-11-26T00:50:37.224Z,0.00
2022-11-26T00:51:37.235Z,0.00
2022-11-26T00:52:37.246Z,0.00
2022-11-26T00:53:37.260Z,0.00
2022-11-26T00:54:37.468Z,0.00
2022-11-26T00:55:37.284Z,0.00
2022-11-26T00:56:38.267Z,0.00
2022-11-26T00:57:37.309Z,0.00
2022-11-26T00:58:37.322Z,0.00
2022-11-26T00:59:37.334Z,0.00
2022-11-26T01:00:37.376Z,0.00
2022-11-26T01:01:37.404Z,0.00
2022-11-26T01:02:37.414Z,0.00
2022-11-26T01:03:37.382Z,0.00
2022-11-26T01:04:37.655Z,0.00
2022-11-26T01:05:37.407Z,0.00
2022-11-26T01:06:37.417Z,0.00
2022-11-26T01:07:37.473Z,0.00
2022-11-26T01:08:37.447Z,0.00
2022-11-26T01:09:37.468Z,0.00
2022-11-26T01:10:37.470Z,0.00
2022-11-26T01:11:37.485Z,0.00
2022-11-26T01:12:37.493Z,0.00
2022-11-26T01:13:37.505Z,0.00
2022-11-26T01:14:37.718Z,0.00
2022-11-26T01:15:37.529Z,0.00
2022-11-26T01:16:37.617Z,0.00
2022-11-26T01:17:37.556Z,0.00
2022-11-26T01:18:37.568Z,0.00
2022-11-26T01:19:37.580Z,0.00
2022-11-26T01:20:37.592Z,0.00
2022-11-26T01:21:37.604Z,0.00
2022-11-26T01:22:37.617Z,0.00
2022-11-26T01:23:37.629Z,0.00
2022-11-26T01:24:37.797Z,0.00
2022-11-26T01:25:37.658Z,0.00
2022-11-26T01:26:37.668Z,0.00
2022-11-26T01:27:37.681Z,0.00
2022-11-26T01:28:37.695Z,0.00
2022-11-26T01:29:37.704Z,0.00
2022-11-26T01:30:37.734Z,0.00
2022-11-26T01:31:37.750Z,0.00
2022-11-26T01:32:37.741Z,0.00
2022-11-26T01:33:37.756Z,0.00
2022-11-26T01:34:38.171Z,0.00
2022-11-26T01:35:37.781Z,0.00
2022-11-26T01:36:37.796Z,0.00
2022-11-26T01:37:37.808Z,0.00
2022-11-26T01:38:37.816Z,0.00
2022-11-26T01:39:37.828Z,0.00
2022-11-26T01:40:37.839Z,0.00
2022-11-26T01:41:37.854Z,0.00
2022-11-26T01:42:37.864Z,0.00
2022-11-26T01:43:37.878Z,0.00
2022-11-26T01:44:38.039Z,0.00
2022-11-26T01:45:37.953Z,0.00
2022-11-26T01:46:37.917Z,0.00
2022-11-26T01:47:37.928Z,0.00
2022-11-26T01:48:37.941Z,0.00
2022-11-26T01:49:37.954Z,0.00
2022-11-26T01:50:37.967Z,0.00
2022-11-26T01:51:37.979Z,0.00
2022-11-26T01:52:37.991Z,0.00
2022-11-26T01:53:38.004Z,0.00
2022-11-26T01:54:38.278Z,0.00
2022-11-26T01:55:38.026Z,0.00
2022-11-26T01:56:38.041Z,0.00
2022-11-26T01:57:38.052Z,0.00
2022-11-26T01:58:40.090Z,0.00
2022-11-26T01:59:38.079Z,0.00
2022-11-26T02:00:38.090Z,0.00
2022-11-26T02:01:38.176Z,0.00
2022-11-26T02:02:38.146Z,0.00
2022-11-26T02:03:38.126Z,0.00
2022-11-26T02:04:38.349Z,0.00
2022-11-26T02:05:38.153Z,0.00
2022-11-26T02:06:38.165Z,0.00
2022-11-26T02:07:38.221Z,0.00
2022-11-26T02:08:38.192Z,0.00
2022-11-26T02:09:38.203Z,0.00
2022-11-26T02:10:38.218Z,0.00
2022-11-26T02:11:38.227Z,0.00
2022-11-26T02:12:38.239Z,0.00
2022-11-26T02:13:38.253Z,0.00
2022-11-26T02:14:38.529Z,0.00
2022-11-26T02:15:38.283Z,0.00
2022-11-26T02:16:38.328Z,0.00
2022-11-26T02:17:38.307Z,0.00
2022-11-26T02:18:38.315Z,0.00
2022-11-26T02:19:38.330Z,0.00
2022-11-26T02:20:38.353Z,0.00
2022-11-26T02:21:38.358Z,0.00
2022-11-26T02:22:38.365Z,0.00
2022-11-26T02:23:38.379Z,0.00
2022-11-26T02:24:38.532Z,0.00
2022-11-26T02:25:38.424Z,0.00
2022-11-26T02:26:38.421Z,0.00
2022-11-26T02:27:38.429Z,0.00
2022-11-26T02:28:38.439Z,0.00
2022-11-26T02:29:38.454Z,0.00
2022-11-26T02:30:38.463Z,0.00
2022-11-26T02:31:38.556Z,0.00
2022-11-26T02:32:38.490Z,0.00
2022-11-26T02:33:38.507Z,0.00
2022-11-26T02:34:38.540Z,0.00
2022-11-26T02:35:38.527Z,0.00
2022-11-26T02:36:38.541Z,0.00
2022-11-26T02:37:38.557Z,0.00
2022-11-26T02:38:38.565Z,0.00
2022-11-26T02:39:38.579Z,0.00
2022-11-26T02:40:38.593Z,0.00
2022-11-26T02:41:38.603Z,0.00
2022-11-26T02:42:38.615Z,0.00
2022-11-26T02:43:38.627Z,0.00
2022-11-26T02:44:38.920Z,0.00
2022-11-26T02:45:38.686Z,0.00
2022-11-26T02:46:38.665Z,0.00
2022-11-26T02:47:38.678Z,0.00
2022-11-26T02:48:38.689Z,0.00
2022-11-26T02:49:38.703Z,0.00
2022-11-26T02:50:38.715Z,0.00
2022-11-26T02:51:38.727Z,0.00
2022-11-26T02:52:38.740Z,0.00
2022-11-26T02:53:38.754Z,0.00
2022-11-26T02:54:39.044Z,0.00
2022-11-26T02:55:38.777Z,0.00
2022-11-26T02:56:38.790Z,0.00
2022-11-26T02:57:38.804Z,0.00
2022-11-26T02:58:38.815Z,0.00
2022-11-26T02:59:38.829Z,0.00
2022-11-26T03:00:38.843Z,0.00
2022-11-26T03:01:38.924Z,0.00
2022-11-26T03:02:38.863Z,0.00
2022-11-26T03:03:38.942Z,0.00
2022-11-26T03:04:39.121Z,0.00
2022-11-26T03:05:38.959Z,0.00
2022-11-26T03:06:38.918Z,0.00
2022-11-26T03:07:38.946Z,0.00
2022-11-26T03:08:38.939Z,0.00
2022-11-26T03:09:38.955Z,0.00
2022-11-26T03:10:38.974Z,0.00
2022-11-26T03:11:39.005Z,0.00
2022-11-26T03:12:38.990Z,0.00
2022-11-26T03:13:39.003Z,0.00
2022-11-26T03:14:39.154Z,0.00
2022-11-26T03:15:39.029Z,0.00
2022-11-26T03:16:39.085Z,0.00
2022-11-26T03:17:39.053Z,0.00
2022-11-26T03:18:39.066Z,0.00
2022-11-26T03:19:39.080Z,0.00
2022-11-26T03:20:39.093Z,0.00
2022-11-26T03:21:39.103Z,0.00
2022-11-26T03:22:39.117Z,0.00
2022-11-26T03:23:39.154Z,0.00
2022-11-26T03:24:39.267Z,0.00
2022-11-26T03:25:39.153Z,0.00
2022-11-26T03:26:39.166Z,0.00
2022-11-26T03:27:39.179Z,0.00
2022-11-26T03:28:39.191Z,0.00
2022-11-26T03:29:39.202Z,0.00
2022-11-26T03:30:39.215Z,0.00
2022-11-26T03:31:39.275Z,0.00
2022-11-26T03:32:39.239Z,0.00
2022-11-26T03:33:39.256Z,0.00
2022-11-26T03:34:39.502Z,0.00
2022-11-26T03:35:39.276Z,0.00
2022-11-26T03:36:39.290Z,0.00
2022-11-26T03:37:39.302Z,0.00
2022-11-26T03:38:39.315Z,0.00
2022-11-26T03:39:39.327Z,0.00
2022-11-26T03:40:39.342Z,0.00
2022-11-26T03:41:39.355Z,0.00
2022-11-26T03:42:39.374Z,0.00
2022-11-26T03:43:39.377Z,0.00
2022-11-26T03:44:39.630Z,0.00
2022-11-26T03:45:39.449Z,0.00
2022-11-26T03:46:39.415Z,0.00
2022-11-26T03:47:39.430Z,0.00
2022-11-26T03:48:39.440Z,0.00
2022-11-26T03:49:39.456Z,0.00
2022-11-26T03:50:39.466Z,0.00
2022-11-26T03:51:39.479Z,0.00
2022-11-26T03:52:39.491Z,0.00
2022-11-26T03:53:39.505Z,0.00
2022-11-26T03:54:39.747Z,0.00
2022-11-26T03:55:39.528Z,0.00
2022-11-26T03:56:39.541Z,0.00
2022-11-26T03:57:39.554Z,0.00
2022-11-26T03:58:39.569Z,0.00
2022-11-26T03:59:39.583Z,0.00
2022-11-26T04:00:39.591Z,0.00
2022-11-26T04:01:39.626Z,0.00
2022-11-26T04:02:39.660Z,0.00
2022-11-26T04:03:39.628Z,0.00
2022-11-26T04:04:39.901Z,0.00
2022-11-26T04:05:39.660Z,0.00
2022-11-26T04:06:39.668Z,0.00
2022-11-26T04:07:39.814Z,0.00
2022-11-26T04:08:39.696Z,0.00
2022-11-26T04:09:39.706Z,0.00
2022-11-26T04:10:39.720Z,0.00
2022-11-26T04:11:39.732Z,0.00
2022-11-26T04:12:39.743Z,0.00
2022-11-26T04:13:39.757Z,0.00
2022-11-26T04:14:40.037Z,0.00
2022-11-26T04:15:39.781Z,0.00
2022-11-26T04:16:39.879Z,0.00
2022-11-26T04:17:39.806Z,0.00
2022-11-26T04:18:39.820Z,0.00
2022-11-26T04:19:39.831Z,0.00
2022-11-26T04:20:39.845Z,0.00
2022-11-26T04:21:39.858Z,0.00
2022-11-26T04:22:39.871Z,0.00
2022-11-26T04:23:39.882Z,0.00
2022-11-26T04:24:40.181Z,0.00
2022-11-26T04:25:39.910Z,0.00
2022-11-26T04:26:39.924Z,0.00
2022-11-26T04:27:39.933Z,0.00
2022-11-26T04:28:39.947Z,0.00
2022-11-26T04:29:39.961Z,0.00
2022-11-26T04:30:39.972Z,0.00
2022-11-26T04:31:40.033Z,0.00
2022-11-26T04:32:40.009Z,0.00
2022-11-26T04:33:40.013Z,0.00
2022-11-26T04:34:40.287Z,0.00
2022-11-26T04:35:40.035Z,0.00
2022-11-26T04:36:40.049Z,0.00
2022-11-26T04:37:40.061Z,0.00
2022-11-26T04:38:40.075Z,0.00
2022-11-26T04:39:40.086Z,0.00
2022-11-26T04:40:40.100Z,0.00
2022-11-26T04:41:40.116Z,0.00
2022-11-26T04:42:40.126Z,0.00
2022-11-26T04:43:40.137Z,0.00
2022-11-26T04:44:40.376Z,0.00
2022-11-26T04:45:40.300Z,0.00
2022-11-26T04:46:40.176Z,0.00
2022-11-26T04:47:42.941Z,0.00
2022-11-26T04:48:40.203Z,0.00
2022-11-26T04:49:40.216Z,0.00
2022-11-26T04:50:40.227Z,0.00
2022-11-26T04:51:40.239Z,0.00
2022-11-26T04:52:40.275Z,0.00
2022-11-26T04:53:40.272Z,0.00
2022-11-26T04:54:40.658Z,0.00
2022-11-26T04:55:40.295Z,0.00
2022-11-26T04:56:40.312Z,0.00
2022-11-26T04:57:40.332Z,0.00
2022-11-26T04:58:40.324Z,0.00
2022-11-26T04:59:40.349Z,0.00
2022-11-26T05:00:40.383Z,0.00
2022-11-26T05:01:40.421Z,0.00
2022-11-26T05:02:40.412Z,0.00
2022-11-26T05:03:40.391Z,0.00
2022-11-26T05:04:40.674Z,0.00
2022-11-26T05:05:40.416Z,0.00
2022-11-26T05:06:40.424Z,0.00
2022-11-26T05:07:40.494Z,0.00
2022-11-26T05:08:40.450Z,0.00
2022-11-26T05:09:40.462Z,0.00
2022-11-26T05:10:40.474Z,0.00
2022-11-26T05:11:40.489Z,0.00
2022-11-26T05:12:40.499Z,0.00
2022-11-26T05:13:40.515Z,0.00
2022-11-26T05:14:40.739Z,0.00
2022-11-26T05:15:40.537Z,0.00
2022-11-26T05:16:40.588Z,0.00
2022-11-26T05:17:40.562Z,0.00
2022-11-26T05:18:40.574Z,0.00
2022-11-26T05:19:40.589Z,0.00
2022-11-26T05:20:40.602Z,0.00
2022-11-26T05:21:40.612Z,0.00
2022-11-26T05:22:40.625Z,0.00
2022-11-26T05:23:40.639Z,0.00
2022-11-26T05:24:40.856Z,0.00
2022-11-26T05:25:40.660Z,0.00
2022-11-26T05:26:40.674Z,0.00
2022-11-26T05:27:40.686Z,0.00
2022-11-26T05:28:40.701Z,0.00
2022-11-26T05:29:40.711Z,0.00
2022-11-26T05:30:40.726Z,0.00
2022-11-26T05:31:40.811Z,0.00
2022-11-26T05:32:40.747Z,0.00
2022-11-26T05:33:40.768Z,0.00
2022-11-26T05:34:41.066Z,0.00
2022-11-26T05:35:40.784Z,0.00
2022-11-26T05:36:40.797Z,0.00
2022-11-26T05:37:40.811Z,0.00
2022-11-26T05:38:40.824Z,0.00
2022-11-26T05:39:40.838Z,0.00
2022-11-26T05:40:40.847Z,0.00
2022-11-26T05:41:40.859Z,0.00
2022-11-26T05:42:40.873Z,0.00
2022-11-26T05:43:40.887Z,0.00
2022-11-26T05:44:41.199Z,0.00
2022-11-26T05:45:40.935Z,0.00
2022-11-26T05:46:40.920Z,0.00
2022-11-26T05:47:40.942Z,0.00
2022-11-26T05:48:40.948Z,0.00
2022-11-26T05:49:40.964Z,0.00
2022-11-26T05:50:40.972Z,0.00
2022-11-26T05:51:40.983Z,0.00
2022-11-26T05:52:40.995Z,0.00
2022-11-26T05:53:41.008Z,0.00
2022-11-26T05:54:41.193Z,0.00
2022-11-26T05:55:41.035Z,0.00
2022-11-26T05:56:41.046Z,0.00
2022-11-26T05:57:41.058Z,0.00
2022-11-26T05:58:41.072Z,0.00
2022-11-26T05:59:41.088Z,0.00
2022-11-26T06:00:41.094Z,0.00
2022-11-26T06:01:41.110Z,0.00
2022-11-26T06:02:41.233Z,0.00
2022-11-26T06:03:41.197Z,0.00
2022-11-26T06:04:41.412Z,0.00
2022-11-26T06:05:41.158Z,0.00
2022-11-26T06:06:41.171Z,0.00
2022-11-26T06:07:44.534Z,0.00
2022-11-26T06:08:41.196Z,0.00
2022-11-26T06:09:41.403Z,0.00
2022-11-26T06:10:41.219Z,0.00
2022-11-26T06:11:41.233Z,0.00
2022-11-26T06:12:41.243Z,0.00
2022-11-26T06:13:41.258Z,4.00
2022-11-26T06:14:43.320Z,4.00
2022-11-26T06:15:41.282Z,0.00
2022-11-26T06:16:41.322Z,4.00
2022-11-26T06:17:41.308Z,4.00
2022-11-26T06:18:41.321Z,4.00
2022-11-26T06:19:41.329Z,4.00
2022-11-26T06:20:41.342Z,4.00
2022-11-26T06:21:41.365Z,4.00
2022-11-26T06:22:41.369Z,4.00
2022-11-26T06:23:47.407Z,4.00
2022-11-26T06:24:41.392Z,4.00
2022-11-26T06:25:41.405Z,8.00
2022-11-26T06:26:41.418Z,8.00
2022-11-26T06:27:41.436Z,8.00
2022-11-26T06:28:41.442Z,12.00
2022-11-26T06:29:41.454Z,16.00
2022-11-26T06:30:41.465Z,16.00
2022-11-26T06:31:41.526Z,16.00
2022-11-26T06:32:41.494Z,16.00
2022-11-26T06:33:41.503Z,24.00
2022-11-26T06:34:43.947Z,32.00
2022-11-26T06:35:41.526Z,36.00
2022-11-26T06:36:41.540Z,44.00
2022-11-26T06:37:41.556Z,44.00
2022-11-26T06:38:41.563Z,56.00
2022-11-26T06:39:41.577Z,56.00
2022-11-26T06:40:41.589Z,68.00
2022-11-26T06:41:41.601Z,72.00
2022-11-26T06:42:41.614Z,72.00
2022-11-26T06:43:41.625Z,76.00
2022-11-26T06:44:41.662Z,96.00
2022-11-26T06:45:41.733Z,112.00
2022-11-26T06:46:41.663Z,120.00
2022-11-26T06:47:41.674Z,136.00
2022-11-26T06:48:41.701Z,144.00
2022-11-26T06:49:41.699Z,140.00
2022-11-26T06:50:41.713Z,148.00
2022-11-26T06:51:41.723Z,164.00
2022-11-26T06:52:41.736Z,180.00
2022-11-26T06:53:41.748Z,196.00
2022-11-26T06:54:41.760Z,216.00
2022-11-26T06:55:41.774Z,232.00
2022-11-26T06:56:41.784Z,228.00
2022-11-26T06:57:41.795Z,220.00
2022-11-26T06:58:41.812Z,220.00
2022-11-26T06:59:41.828Z,208.00
2022-11-26T07:00:41.835Z,224.00
2022-11-26T07:01:41.886Z,264.00
2022-11-26T07:02:41.897Z,256.00
2022-11-26T07:03:41.871Z,280.00
2022-11-26T07:04:41.881Z,276.00
2022-11-26T07:05:41.896Z,292.00
2022-11-26T07:06:41.908Z,344.00
2022-11-26T07:07:42.002Z,304.00
2022-11-26T07:08:41.933Z,300.00
2022-11-26T07:09:41.945Z,336.00
2022-11-26T07:10:46.110Z,360.00
2022-11-26T07:11:41.973Z,376.00
2022-11-26T07:12:41.981Z,384.00
2022-11-26T07:13:41.997Z,356.00
2022-11-26T07:14:42.154Z,380.00
2022-11-26T07:15:42.051Z,364.00
2022-11-26T07:16:42.031Z,412.00
2022-11-26T07:17:42.047Z,424.00
2022-11-26T07:18:42.056Z,416.00
2022-11-26T07:19:42.069Z,412.00
2022-11-26T07:20:42.081Z,444.00
2022-11-26T07:21:42.093Z,476.00
2022-11-26T07:22:42.107Z,524.00
2022-11-26T07:23:42.120Z,548.00
2022-11-26T07:24:42.138Z,532.00
2022-11-26T07:25:42.149Z,512.00
2022-11-26T07:26:42.160Z,580.00
2022-11-26T07:27:42.169Z,628.00
2022-11-26T07:28:42.183Z,800.00
2022-11-26T07:29:42.207Z,724.00
2022-11-26T07:30:42.226Z,768.00
2022-11-26T07:31:42.301Z,784.00
2022-11-26T07:32:42.233Z,808.00
2022-11-26T07:33:42.243Z,844.00
2022-11-26T07:34:42.255Z,956.00
2022-11-26T07:35:42.265Z,1096.00
2022-11-26T07:36:42.280Z,1360.00
2022-11-26T07:37:42.293Z,1344.00
2022-11-26T07:38:42.303Z,1360.00
2022-11-26T07:39:42.318Z,1176.00
2022-11-26T07:40:42.331Z,944.00
2022-11-26T07:41:42.341Z,664.00
2022-11-26T07:42:42.360Z,672.00
2022-11-26T07:43:42.367Z,872.00
2022-11-26T07:44:42.379Z,928.00
2022-11-26T07:45:42.445Z,940.00
2022-11-26T07:46:42.478Z,1028.00
2022-11-26T07:47:42.423Z,1012.00
2022-11-26T07:48:42.428Z,944.00
2022-11-26T07:49:42.441Z,1208.00
2022-11-26T07:50:42.453Z,1280.00
2022-11-26T07:51:42.467Z,1060.00
2022-11-26T07:52:42.483Z,1092.00
2022-11-26T07:53:42.492Z,1260.00
2022-11-26T07:54:42.504Z,1436.00
2022-11-26T07:55:42.515Z,1352.00
2022-11-26T07:56:42.528Z,1352.00
2022-11-26T07:57:42.541Z,1632.00
2022-11-26T07:58:42.554Z,1548.00
2022-11-26T07:59:42.566Z,1600.00
2022-11-26T08:00:42.579Z,1572.00
2022-11-26T08:01:42.631Z,1824.00
2022-11-26T08:02:42.674Z,1460.00
2022-11-26T08:03:42.616Z,1512.00
2022-11-26T08:04:42.629Z,1540.00
2022-11-26T08:05:42.644Z,1548.00
2022-11-26T08:06:42.655Z,1688.00
2022-11-26T08:07:42.683Z,1744.00
2022-11-26T08:08:42.678Z,1816.00
2022-11-26T08:09:42.695Z,1740.00
2022-11-26T08:10:42.707Z,1680.00
2022-11-26T08:11:42.718Z,1748.00
2022-11-26T08:12:42.730Z,2084.00
2022-11-26T08:13:42.746Z,2184.00
2022-11-26T08:14:42.782Z,1968.00
2022-11-26T08:15:42.771Z,1936.00
2022-11-26T08:16:42.875Z,2044.00
2022-11-26T08:17:42.795Z,2092.00
2022-11-26T08:18:42.805Z,2416.00
2022-11-26T08:19:42.818Z,2288.00
2022-11-26T08:20:42.830Z,2072.00
2022-11-26T08:21:42.845Z,1996.00
2022-11-26T08:22:42.857Z,1880.00
2022-11-26T08:23:42.869Z,1936.00
2022-11-26T08:24:42.885Z,2224.00
2022-11-26T08:26:06.210Z,2328.00
2022-11-26T08:26:44.426Z,2312.00
2022-11-26T08:27:42.922Z,2276.00
2022-11-26T08:28:42.934Z,2272.00
2022-11-26T08:29:42.945Z,2508.00
2022-11-26T08:30:42.965Z,2424.00
2022-11-26T08:31:46.208Z,2752.00
2022-11-26T08:32:42.984Z,2656.00
2022-11-26T08:33:42.996Z,3152.00
2022-11-26T08:34:43.009Z,2992.00
2022-11-26T08:36:05.609Z,2644.00
2022-11-26T08:36:43.037Z,2800.00
2022-11-26T08:37:43.048Z,2568.00
2022-11-26T08:38:43.061Z,2740.00
2022-11-26T08:39:43.076Z,3096.00
2022-11-26T08:40:43.088Z,3372.00
2022-11-26T08:41:46.153Z,2580.00
2022-11-26T08:42:43.117Z,2656.00
2022-11-26T08:44:05.559Z,3276.00
2022-11-26T08:44:43.138Z,3048.00
2022-11-26T08:45:43.195Z,3196.00
2022-11-26T08:46:43.166Z,2900.00
2022-11-26T08:47:43.183Z,2696.00
2022-11-26T08:48:43.192Z,2756.00
2022-11-26T08:49:43.207Z,3092.00
2022-11-26T08:50:43.218Z,2860.00
2022-11-26T08:51:43.232Z,2528.00
2022-11-26T08:52:43.244Z,3120.00
2022-11-26T08:53:43.264Z,3540.00
2022-11-26T08:54:45.285Z,3312.00
2022-11-26T08:55:59.835Z,3320.00
2022-11-26T08:56:43.299Z,3604.00
2022-11-26T08:57:43.311Z,3696.00
2022-11-26T08:58:43.323Z,3460.00
2022-11-26T08:59:43.335Z,3624.00
2022-11-26T09:00:43.350Z,3780.00
2022-11-26T09:01:43.419Z,3440.00
2022-11-26T09:02:43.384Z,3256.00
2022-11-26T09:03:43.389Z,3424.00
2022-11-26T09:04:43.403Z,3976.00
2022-11-26T09:05:43.417Z,3724.00
2022-11-26T09:06:43.430Z,4032.00
2022-11-26T09:07:47.761Z,4028.00
2022-11-26T09:08:43.455Z,3788.00
2022-11-26T09:09:43.470Z,3432.00
2022-11-26T09:10:43.485Z,3192.00
2022-11-26T09:11:43.501Z,3156.00
2022-11-26T09:12:43.508Z,3408.00
2022-11-26T09:13:43.526Z,3636.00
2022-11-26T09:14:43.748Z,3692.00
2022-11-26T09:15:43.550Z,3956.00
2022-11-26T09:16:43.588Z,4068.00
2022-11-26T09:17:43.576Z,4156.00
2022-11-26T09:18:43.592Z,4404.00
2022-11-26T09:19:43.602Z,4524.00
2022-11-26T09:20:43.615Z,4452.00
2022-11-26T09:21:43.638Z,4488.00
2022-11-26T09:22:43.642Z,4640.00
2022-11-26T09:23:43.658Z,4560.00
2022-11-26T09:24:43.672Z,4924.00
2022-11-26T09:25:43.684Z,5168.00
2022-11-26T09:26:43.696Z,4852.00
2022-11-26T09:27:43.708Z,4316.00
2022-11-26T09:28:43.722Z,3496.00
2022-11-26T09:29:43.736Z,3152.00
2022-11-26T09:30:43.750Z,3352.00
2022-11-26T09:32:07.546Z,3532.00
2022-11-26T09:32:43.807Z,3548.00
2022-11-26T09:33:43.791Z,3456.00
2022-11-26T09:34:43.804Z,3388.00
2022-11-26T09:35:43.816Z,4328.00
2022-11-26T09:36:43.832Z,4232.00
2022-11-26T09:37:48.678Z,3736.00
2022-11-26T09:38:43.857Z,3564.00
2022-11-26T09:39:43.872Z,3232.00
2022-11-26T09:40:43.885Z,2440.00
2022-11-26T09:41:43.897Z,1932.00
2022-11-26T09:42:43.911Z,2172.00
2022-11-26T09:43:43.926Z,2852.00
2022-11-26T09:44:43.936Z,3376.00
2022-11-26T09:45:43.991Z,3248.00
2022-11-26T09:47:10.052Z,2612.00
2022-11-26T09:47:43.984Z,2372.00
2022-11-26T09:48:43.993Z,2464.00
2022-11-26T09:49:44.008Z,3120.00
2022-11-26T09:50:44.019Z,3364.00
2022-11-26T09:51:44.038Z,3920.00
2022-11-26T09:52:44.070Z,4604.00
2022-11-26T09:53:44.069Z,4504.00
2022-11-26T09:54:44.075Z,3860.00
2022-11-26T09:55:44.095Z,3328.00
2022-11-26T09:56:44.114Z,3232.00
2022-11-26T09:57:44.131Z,3296.00
2022-11-26T09:58:44.132Z,3212.00
2022-11-26T09:59:44.141Z,2968.00
2022-11-26T10:00:44.234Z,2624.00
2022-11-26T10:01:44.225Z,2480.00
2022-11-26T10:02:44.256Z,2296.00
2022-11-26T10:03:44.193Z,2296.00
2022-11-26T10:04:44.205Z,2460.00
2022-11-26T10:05:44.221Z,2856.00
2022-11-26T10:06:44.235Z,2928.00
2022-11-26T10:07:44.289Z,3048.00
2022-11-26T10:08:44.259Z,3620.00
2022-11-26T10:09:44.280Z,3328.00
2022-11-26T10:10:44.291Z,3764.00
2022-11-26T10:11:44.302Z,3696.00
2022-11-26T10:13:03.530Z,3288.00
2022-11-26T10:13:44.330Z,3348.00
2022-11-26T10:14:44.342Z,3156.00
2022-11-26T10:15:44.356Z,2568.00
2022-11-26T10:16:44.417Z,2492.00
2022-11-26T10:17:44.384Z,2644.00
2022-11-26T10:18:44.397Z,3080.00
2022-11-26T10:19:44.408Z,3632.00
2022-11-26T10:20:44.422Z,3692.00
2022-11-26T10:21:58.809Z,3320.00
2022-11-26T10:22:44.455Z,3752.00
2022-11-26T10:23:44.462Z,3464.00
2022-11-26T10:24:44.476Z,3840.00
2022-11-26T10:25:44.488Z,3416.00
2022-11-26T10:26:44.515Z,3452.00
2022-11-26T10:27:44.518Z,3916.00
2022-11-26T10:28:44.528Z,4588.00
2022-11-26T10:29:44.543Z,4420.00
2022-11-26T10:30:44.559Z,3540.00
2022-11-26T10:31:44.630Z,3292.00
2022-11-26T10:32:44.583Z,3324.00
2022-11-26T10:33:44.596Z,3308.00
2022-11-26T10:34:44.957Z,3560.00
2022-11-26T10:35:44.622Z,4376.00
2022-11-26T10:36:44.636Z,4472.00
2022-11-26T10:37:44.651Z,4296.00
2022-11-26T10:38:44.663Z,4060.00
2022-11-26T10:39:44.681Z,3644.00
2022-11-26T10:40:44.692Z,3100.00
2022-11-26T10:41:44.706Z,3424.00
2022-11-26T10:42:44.719Z,3756.00
2022-11-26T10:43:44.729Z,3432.00
2022-11-26T10:44:44.742Z,3556.00
2022-11-26T10:45:44.757Z,3000.00
2022-11-26T10:46:44.795Z,2908.00
2022-11-26T10:47:44.783Z,3572.00
2022-11-26T10:48:44.796Z,3768.00
2022-11-26T10:49:44.810Z,3512.00
2022-11-26T10:50:48.230Z,3364.00
2022-11-26T10:51:44.836Z,2836.00
2022-11-26T10:52:44.870Z,2852.00
2022-11-26T10:53:44.864Z,3140.00
2022-11-26T10:54:44.875Z,3076.00
2022-11-26T10:55:44.892Z,2804.00
2022-11-26T10:56:44.906Z,2792.00
2022-11-26T10:57:44.918Z,2104.00
2022-11-26T10:58:44.930Z,1776.00
2022-11-26T10:59:44.944Z,1728.00
2022-11-26T11:00:45.027Z,1716.00
2022-11-26T11:01:45.005Z,1664.00
2022-11-26T11:02:45.062Z,1668.00
2022-11-26T11:04:07.352Z,1560.00
2022-11-26T11:04:45.110Z,1492.00
2022-11-26T11:05:45.028Z,1448.00
2022-11-26T11:06:45.035Z,1504.00
2022-11-26T11:07:45.120Z,1708.00
2022-11-26T11:08:45.062Z,1808.00
2022-11-26T11:09:45.079Z,1808.00
2022-11-26T11:10:45.092Z,2344.00
2022-11-26T11:11:45.103Z,2444.00
2022-11-26T11:12:45.115Z,2820.00
2022-11-26T11:13:45.131Z,3468.00
2022-11-26T11:14:45.427Z,3232.00
2022-11-26T11:15:45.156Z,3248.00
2022-11-26T11:16:45.231Z,3272.00
2022-11-26T11:17:45.182Z,3584.00
2022-11-26T11:18:45.195Z,3868.00
2022-11-26T11:19:45.209Z,3860.00
2022-11-26T11:20:45.222Z,3904.00
2022-11-26T11:21:48.153Z,4108.00
2022-11-26T11:22:45.249Z,3904.00
2022-11-26T11:24:09.483Z,3744.00
2022-11-26T11:24:45.568Z,3796.00
2022-11-26T11:25:45.290Z,4164.00
2022-11-26T11:26:45.327Z,4380.00
2022-11-26T11:27:45.312Z,5008.00
2022-11-26T11:28:45.328Z,4976.00
2022-11-26T11:29:45.340Z,4428.00
2022-11-26T11:30:45.353Z,4232.00
2022-11-26T11:31:45.412Z,4508.00
2022-11-26T11:32:45.379Z,4672.00
2022-11-26T11:33:45.393Z,4596.00
2022-11-26T11:34:45.408Z,4912.00
2022-11-26T11:35:45.420Z,5236.00
2022-11-26T11:36:45.434Z,4940.00
2022-11-26T11:37:45.445Z,4668.00
2022-11-26T11:38:45.461Z,5496.00
2022-11-26T11:39:45.476Z,6740.00
2022-11-26T11:40:45.487Z,6852.00
2022-11-26T11:41:45.501Z,6196.00
2022-11-26T11:42:45.515Z,6000.00
2022-11-26T11:43:45.528Z,6212.00
2022-11-26T11:44:45.541Z,5776.00
2022-11-26T11:45:49.988Z,5712.00
2022-11-26T11:46:45.570Z,5388.00
2022-11-26T11:47:45.582Z,5416.00
2022-11-26T11:48:45.596Z,5532.00
2022-11-26T11:49:45.612Z,5440.00
2022-11-26T11:50:45.625Z,5620.00
2022-11-26T11:51:45.638Z,5716.00
2022-11-26T11:52:45.652Z,5768.00
2022-11-26T11:53:45.756Z,6020.00
2022-11-26T11:54:45.688Z,6520.00
2022-11-26T11:55:45.694Z,6720.00
2022-11-26T11:56:45.709Z,6628.00
2022-11-26T11:57:45.722Z,5504.00
2022-11-26T11:58:45.737Z,5016.00
2022-11-26T11:59:45.749Z,5572.00
2022-11-26T12:00:45.768Z,5288.00
2022-11-26T12:01:45.823Z,5320.00
2022-11-26T12:02:45.795Z,5876.00
2022-11-26T12:03:45.806Z,5804.00
2022-11-26T12:04:45.875Z,5236.00
2022-11-26T12:05:45.835Z,5556.00
2022-11-26T12:06:45.849Z,5156.00
2022-11-26T12:07:45.954Z,4340.00
2022-11-26T12:08:45.876Z,4008.00
2022-11-26T12:09:45.894Z,3892.00
2022-11-26T12:10:45.911Z,5416.00
2022-11-26T12:11:45.926Z,4516.00
2022-11-26T12:12:45.941Z,3364.00
2022-11-26T12:13:45.951Z,3188.00
2022-11-26T12:14:46.263Z,4188.00
2022-11-26T12:15:45.978Z,5272.00
2022-11-26T12:16:46.075Z,4356.00
2022-11-26T12:17:46.019Z,3124.00
2022-11-26T12:18:46.038Z,3284.00
2022-11-26T12:19:46.033Z,4808.00
2022-11-26T12:20:46.048Z,3968.00
2022-11-26T12:21:46.062Z,3560.00
2022-11-26T12:22:46.077Z,4620.00
2022-11-26T12:23:46.092Z,4504.00
2022-11-26T12:24:46.104Z,3532.00
2022-11-26T12:25:46.121Z,4004.00
2022-11-26T12:26:46.135Z,4920.00
2022-11-26T12:27:46.148Z,4480.00
2022-11-26T12:28:51.117Z,4104.00
2022-11-26T12:29:46.174Z,4216.00
2022-11-26T12:30:46.196Z,4120.00
2022-11-26T12:31:46.273Z,3728.00
2022-11-26T12:32:46.217Z,3228.00
2022-11-26T12:33:46.230Z,2904.00
2022-11-26T12:34:46.247Z,2780.00
2022-11-26T12:35:46.259Z,2944.00
2022-11-26T12:36:46.276Z,2944.00
2022-11-26T12:37:46.288Z,2808.00
2022-11-26T12:38:46.311Z,2804.00
2022-11-26T12:39:53.222Z,2760.00
2022-11-26T12:40:46.328Z,2828.00
2022-11-26T12:41:46.344Z,3004.00
2022-11-26T12:42:46.360Z,3476.00
2022-11-26T12:43:46.370Z,3640.00